Time;durP1;ratioP1;P1;durP2;ratioP2;P2;SDS_P1;SDS_P2;PMS_P1;PMS_P2;Temp;Humidity;BMP_temperature;BMP_pressure;BME280_temperature;BME280_humidity;BME280_pressure;Samples;Min_cycle;Max_cycle;Signal;HPM_P1;HPM_P2
2024/01/03 00:02:13;;;;;;;8.00;1.90;;;;;;;;;;5032925;28;20030;-76
2024/01/03 00:04:42;;;;;;;4.90;1.67;;;;;;;;;;5026092;28;20026;-75
2024/01/03 00:07:10;;;;;;;8.47;2.00;;;;;;;;;;5014101;28;20023;-76
2024/01/03 00:09:45;;;;;;;7.80;1.60;;;;;;;;;;5016638;28;20017;-75
2024/01/03 00:12:15;;;;;;;8.67;1.33;;;;;;;;;;5017511;28;20090;-76
2024/01/03 00:14:50;;;;;;;11.63;2.30;;;;;;;;;;5015914;28;20021;-75
2024/01/03 00:17:20;;;;;;;7.43;1.57;;;;;;;;;;5030520;28;20037;-75
2024/01/03 00:19:58;;;;;;;;;;;;;;;;;;;;;
2024/01/03 00:25:18;;;;;;;11.67;1.70;;;;;;;;;;5032816;28;20132;-75
2024/01/03 00:27:46;;;;;;;9.50;1.87;;;;;;;;;;5006104;28;20026;-74
2024/01/03 00:30:15;;;;;;;8.10;1.13;;;;;;;;;;5015821;28;20092;-74
2024/01/03 00:33:04;;;;;;;8.43;1.73;;;;;;;;;;5016976;28;20076;-75
2024/01/03 00:35:32;;;;;;;5.63;1.67;;;;;;;;;;5031909;28;20014;-74
2024/01/03 00:38:12;;;;;;;14.20;2.77;;;;;;;;;;5018022;28;20026;-75
2024/01/03 00:40:58;;;;;;;9.53;2.20;;;;;;;;;;5015863;28;20037;-75
2024/01/03 00:43:34;;;;;;;8.70;1.83;;;;;;;;;;5037411;28;20026;-75
2024/01/03 00:46:23;;;;;;;13.43;2.03;;;;;;;;;;5015361;28;20021;-75
2024/01/03 00:52:08;;;;;;;9.20;1.50;;;;;;;;;;5018712;28;20018;-75
2024/01/03 00:54:56;;;;;;;;;;;;;;;;;;;;;
2024/01/03 00:57:30;;;;;;;7.97;1.03;;;;;;;;;;5032327;28;20046;-75
2024/01/03 00:59:59;;;;;;;5.93;1.50;;;;;;;;;;5015330;28;20018;-75
2024/01/03 01:05:21;;;;;;;8.77;1.70;;;;;;;;;;5021862;28;20048;-76
2024/01/03 01:07:51;;;;;;;8.83;0.97;;;;;;;;;;5015244;28;20042;-76
2024/01/03 01:10:27;;;;;;;6.03;1.00;;;;;;;;;;5014402;28;20018;-76
2024/01/03 01:13:10;;;;;;;8.27;1.53;;;;;;;;;;5016099;28;20038;-76
2024/01/03 01:15:49;;;;;;;;;;;;;;;;;;;;;
2024/01/03 01:18:46;;;;;;;10.30;2.03;;;;;;;;;;5036021;28;20056;-76
2024/01/03 01:21:08;;;;;;;5.40;1.30;;;;;;;;;;5031764;28;20018;-76
2024/01/03 01:23:47;;;;;;;;;;;;;;;;;;;;;
2024/01/03 01:26:16;;;;;;;10.37;1.00;;;;;;;;;;5036524;28;20049;-76
2024/01/03 01:28:47;;;;;;;4.60;1.17;;;;;;;;;;5018423;28;20037;-75
2024/01/03 01:31:37;;;;;;;5.83;1.07;;;;;;;;;;5036727;28;20036;-76
2024/01/03 01:34:16;;;;;;;6.40;1.23;;;;;;;;;;5036163;28;20014;-76
2024/01/03 01:36:51;;;;;;;7.70;1.33;;;;;;;;;;5009989;28;20017;-76
2024/01/03 01:39:38;;;;;;;6.87;0.87;;;;;;;;;;5010040;28;20045;-76
2024/01/03 01:42:25;;;;;;;6.53;0.77;;;;;;;;;;5018600;28;20034;-76
2024/01/03 01:44:58;;;;;;;7.43;1.03;;;;;;;;;;5018454;28;20010;-76
2024/01/03 01:47:29;;;;;;;4.17;0.77;;;;;;;;;;5017760;28;20038;-76
2024/01/03 01:50:03;;;;;;;5.07;1.23;;;;;;;;;;5018462;28;20166;-76
2024/01/03 01:52:32;;;;;;;4.57;1.20;;;;;;;;;;5018200;28;20140;-75
2024/01/03 01:58:17;;;;;;;;;;;;;;;;;;;;;
2024/01/03 02:00:52;;;;;;;5.47;1.70;;;;;;;;;;5035602;28;20149;-75
2024/01/03 02:03:29;;;;;;;5.33;0.80;;;;;;;;;;5035794;28;20025;-76
2024/01/03 02:05:56;;;;;;;3.43;0.80;;;;;;;;;;5018363;28;20053;-76
2024/01/03 02:08:22;;;;;;;3.23;0.63;;;;;;;;;;5018305;28;20090;-76
2024/01/03 02:11:08;;;;;;;6.40;1.00;;;;;;;;;;5018485;28;20026;-75
2024/01/03 02:13:36;;;;;;;3.73;0.87;;;;;;;;;;5017017;28;20025;-76
2024/01/03 02:16:20;;;;;;;5.20;0.90;;;;;;;;;;5018114;28;20022;-76
2024/01/03 02:18:47;;;;;;;14.97;1.27;;;;;;;;;;5018253;28;20053;-75
2024/01/03 02:21:39;;;;;;;4.67;1.50;;;;;;;;;;5017100;28;20022;-76
2024/01/03 02:24:31;;;;;;;5.88;1.25;;;;;;;;;;5012001;28;20026;-76
2024/01/03 02:26:57;;;;;;;5.20;0.75;;;;;;;;;;5017092;28;20029;-76
2024/01/03 02:29:36;;;;;;;;;;;;;;;;;;;;;
2024/01/03 02:32:34;;;;;;;7.20;1.23;;;;;;;;;;5035550;28;20033;-76
2024/01/03 02:35:13;;;;;;;;;;;;;;;;;;;;;
2024/01/03 02:37:49;;;;;;;6.67;1.30;;;;;;;;;;5034957;28;20061;-76
2024/01/03 02:40:50;;;;;;;;;;;;;;;;;;;;;
2024/01/03 02:43:18;;;;;;;8.60;1.73;;;;;;;;;;5038411;28;20084;-75
2024/01/03 02:46:05;;;;;;;11.70;1.00;;;;;;;;;;5017469;28;20014;-77
2024/01/03 02:48:41;;;;;;;9.70;1.20;;;;;;;;;;5004185;28;20049;-76
2024/01/03 02:51:07;;;;;;;2.50;0.93;;;;;;;;;;5019288;28;20089;-76
2024/01/03 02:53:35;;;;;;;9.60;1.03;;;;;;;;;;5022379;28;20026;-76
2024/01/03 02:56:04;;;;;;;3.90;0.77;;;;;;;;;;5019098;28;20014;-76
2024/01/03 02:58:41;;;;;;;8.37;1.13;;;;;;;;;;5021025;28;20053;-76
2024/01/03 03:01:17;;;;;;;6.77;1.00;;;;;;;;;;5019237;28;20107;-76
2024/01/03 03:03:49;;;;;;;7.67;1.53;;;;;;;;;;5020722;28;20034;-76
2024/01/03 03:06:18;;;;;;;6.22;0.90;;;;;;;;;;5020505;28;20113;-76
2024/01/03 03:09:16;;;;;;;6.40;1.10;;;;;;;;;;5019981;28;20026;-76
2024/01/03 03:11:39;;;;;;;7.57;1.03;;;;;;;;;;5034399;28;20042;-77
2024/01/03 03:14:28;;;;;;;4.53;0.40;;;;;;;;;;5018840;28;20085;-76
2024/01/03 03:17:02;;;;;;;5.70;0.87;;;;;;;;;;5002999;28;20037;-76
2024/01/03 03:19:28;;;;;;;7.77;0.67;;;;;;;;;;5034929;28;20022;-76
2024/01/03 03:21:54;;;;;;;15.73;1.00;;;;;;;;;;5019829;28;20048;-76
2024/01/03 03:24:31;;;;;;;7.33;1.00;;;;;;;;;;5018862;28;20034;-75
2024/01/03 03:29:51;;;;;;;2.60;0.80;;;;;;;;;;5021232;28;20034;-75
2024/01/03 03:32:22;;;;;;;3.27;0.70;;;;;;;;;;5016989;28;20030;-75
2024/01/03 03:35:09;;;;;;;;;;;;;;;;;;;;;
2024/01/03 03:38:06;;;;;;;8.23;1.10;;;;;;;;;;5033316;28;20057;-75
2024/01/03 03:40:50;;;;;;;6.57;1.43;;;;;;;;;;5034670;28;20034;-76
2024/01/03 03:43:39;;;;;;;8.87;1.90;;;;;;;;;;5016842;28;20038;-75
2024/01/03 03:46:11;;;;;;;8.67;1.30;;;;;;;;;;5008448;28;20037;-75
2024/01/03 03:48:44;;;;;;;8.48;1.92;;;;;;;;;;5005219;28;20033;-75
2024/01/03 03:51:23;;;;;;;;;;;;;;;;;;;;;
2024/01/03 03:53:51;;;;;;;7.37;1.10;;;;;;;;;;5034006;28;20044;-75
2024/01/03 03:56:35;;;;;;;7.60;1.80;;;;;;;;;;5005521;28;20101;-76
2024/01/03 03:59:10;;;;;;;10.90;1.67;;;;;;;;;;5021110;28;20018;-76
2024/01/03 04:02:05;;;;;;;10.00;1.20;;;;;;;;;;5033794;28;20033;-75
2024/01/03 04:04:33;;;;;;;11.97;1.93;;;;;;;;;;5017937;28;20221;-76
2024/01/03 04:07:23;;;;;;;12.70;1.87;;;;;;;;;;5017101;28;20129;-76
2024/01/03 04:09:49;;;;;;;7.53;1.77;;;;;;;;;;5031690;28;20022;-76
2024/01/03 04:12:17;;;;;;;10.13;2.17;;;;;;;;;;5016516;28;20045;-76
2024/01/03 04:14:53;;;;;;;;;;;;;;;;;;;;;
2024/01/03 04:17:22;;;;;;;11.23;1.27;;;;;;;;;;5035027;28;20070;-76
2024/01/03 04:20:00;;;;;;;;;;;;;;;;;;;;;
2024/01/03 04:22:58;;;;;;;10.47;1.67;;;;;;;;;;5034048;28;20046;-76
2024/01/03 04:25:29;;;;;;;12.60;1.77;;;;;;;;;;5028639;28;20027;-76
2024/01/03 04:27:58;;;;;;;12.07;1.63;;;;;;;;;;5008966;28;20033;-76
2024/01/03 04:30:27;;;;;;;7.57;1.17;;;;;;;;;;5014558;28;20030;-76
2024/01/03 04:32:55;;;;;;;8.80;1.50;;;;;;;;;;5036000;28;20032;-76
2024/01/03 04:35:27;;;;;;;12.97;2.23;;;;;;;;;;5006776;28;20014;-77
2024/01/03 04:38:02;;;;;;;7.80;1.40;;;;;;;;;;5017316;28;20030;-75
2024/01/03 04:40:31;;;;;;;10.07;1.43;;;;;;;;;;5017279;28;20010;-76
2024/01/03 04:43:08;;;;;;;8.80;1.60;;;;;;;;;;5019706;28;20029;-76
2024/01/03 04:45:55;;;;;;;;;;;;;;;;;;;;;
2024/01/03 04:48:36;;;;;;;11.97;1.60;;;;;;;;;;5036758;28;20014;-76
2024/01/03 04:51:14;;;;;;;5.30;1.17;;;;;;;;;;5022037;28;20053;-76
2024/01/03 04:53:43;;;;;;;12.13;2.20;;;;;;;;;;5022419;28;20018;-76
2024/01/03 04:56:13;;;;;;;10.30;1.43;;;;;;;;;;5041760;28;20010;-76
2024/01/03 04:58:42;;;;;;;8.77;1.63;;;;;;;;;;5024661;28;20022;-76
2024/01/03 05:01:25;;;;;;;10.00;1.33;;;;;;;;;;5024709;28;20081;-76
2024/01/03 05:03:56;;;;;;;9.80;1.83;;;;;;;;;;5034256;28;20018;-76
2024/01/03 05:06:27;;;;;;;13.73;2.00;;;;;;;;;;5022639;28;20029;-75
2024/01/03 05:08:55;;;;;;;14.67;2.17;;;;;;;;;;5005415;28;20022;-75
2024/01/03 05:11:23;;;;;;;7.83;1.53;;;;;;;;;;5010550;28;20006;-76
2024/01/03 05:13:50;;;;;;;13.17;1.80;;;;;;;;;;5015553;28;20034;-76
2024/01/03 05:16:20;;;;;;;9.57;1.60;;;;;;;;;;5020351;28;20014;-76
2024/01/03 05:19:02;;;;;;;16.73;2.80;;;;;;;;;;5022998;28;20044;-76
2024/01/03 05:21:33;;;;;;;11.32;1.38;;;;;;;;;;5014716;28;20022;-76
2024/01/03 05:24:19;;;;;;;10.83;2.10;;;;;;;;;;5024095;28;20086;-76
2024/01/03 05:27:01;;;;;;;;;;;;;;;;;;;;;
2024/01/03 05:29:36;;;;;;;16.42;2.92;;;;;;;;;;5038787;28;20014;-76
2024/01/03 05:38:21;;;;;;;12.83;1.70;;;;;;;;;;5027016;28;20038;-76
2024/01/03 05:40:47;;;;;;;12.02;2.42;;;;;;;;;;5015759;28;20026;-78
2024/01/03 05:43:34;;;;;;;13.67;2.37;;;;;;;;;;5023723;28;20042;-76
2024/01/03 05:46:20;;;;;;;16.77;3.17;;;;;;;;;;5035055;28;20020;-76
2024/01/03 05:48:53;;;;;;;14.07;2.50;;;;;;;;;;5023158;28;20026;-76
2024/01/03 05:51:25;;;;;;;16.57;2.23;;;;;;;;;;5015637;28;20111;-76
2024/01/03 05:53:54;;;;;;;14.32;2.22;;;;;;;;;;5023086;28;20040;-76
2024/01/03 05:56:30;;;;;;;11.37;1.83;;;;;;;;;;5018996;28;20030;-76
2024/01/03 05:59:09;;;;;;;;;;;;;;;;;;;;;
2024/01/03 06:01:37;;;;;;;9.23;2.00;;;;;;;;;;5025933;28;20161;-76
2024/01/03 06:04:21;;;;;;;18.30;2.30;;;;;;;;;;5023331;28;20006;-76
2024/01/03 06:06:51;;;;;;;11.30;2.63;;;;;;;;;;5019545;28;20117;-76
2024/01/03 06:09:32;;;;;;;13.33;2.10;;;;;;;;;;5023331;28;20010;-75
2024/01/03 06:11:58;;;;;;;15.10;3.13;;;;;;;;;;5023405;28;20045;-76
2024/01/03 06:14:24;;;;;;;18.47;3.07;;;;;;;;;;5020173;28;20025;-77
2024/01/03 06:16:54;;;;;;;14.27;2.80;;;;;;;;;;5039880;28;20024;-76
2024/01/03 06:19:20;;;;;;;11.03;2.13;;;;;;;;;;5037262;28;20029;-76
2024/01/03 06:21:53;;;;;;;16.53;2.63;;;;;;;;;;5038778;28;20058;-76
2024/01/03 06:24:27;;;;;;;16.10;3.37;;;;;;;;;;5021387;28;20102;-75
2024/01/03 06:29:51;;;;;;;20.52;2.50;;;;;;;;;;5034334;28;20042;-76
2024/01/03 06:32:17;;;;;;;9.90;1.80;;;;;;;;;;5036823;28;20026;-76
2024/01/03 06:34:54;;;;;;;18.00;2.40;;;;;;;;;;5035260;28;20202;-76
2024/01/03 06:37:41;;;;;;;;;;;;;;;;;;;;;
2024/01/03 06:40:10;;;;;;;6.47;1.83;;;;;;;;;;5035325;28;20041;-75
2024/01/03 06:42:59;;;;;;;14.00;2.83;;;;;;;;;;5016675;28;20037;-75
2024/01/03 06:45:30;;;;;;;13.83;2.47;;;;;;;;;;5034915;28;20033;-76
2024/01/03 06:47:58;;;;;;;17.10;2.50;;;;;;;;;;5018730;28;20023;-75
2024/01/03 06:50:32;;;;;;;11.57;2.27;;;;;;;;;;5007802;28;20018;-76
2024/01/03 06:53:00;;;;;;;14.33;2.70;;;;;;;;;;5017455;28;20098;-76
2024/01/03 06:55:28;;;;;;;11.33;2.07;;;;;;;;;;5016899;28;20010;-76
2024/01/03 06:58:14;;;;;;;12.03;1.60;;;;;;;;;;5033861;28;20046;-76
2024/01/03 07:00:42;;;;;;;11.50;2.47;;;;;;;;;;5016318;28;20018;-76
2024/01/03 07:03:14;;;;;;;11.17;2.07;;;;;;;;;;5016313;28;20041;-75
2024/01/03 07:05:42;;;;;;;14.90;3.47;;;;;;;;;;5015740;28;20014;-76
2024/01/03 07:08:16;;;;;;;9.83;2.00;;;;;;;;;;5016508;28;20026;-76
2024/01/03 07:10:51;;;;;;;11.43;1.80;;;;;;;;;;5005367;28;20019;-76
2024/01/03 07:13:25;;;;;;;11.07;2.07;;;;;;;;;;5016468;28;20030;-76
2024/01/03 07:16:25;;;;;;;14.40;2.50;;;;;;;;;;4992911;28;20046;-76
2024/01/03 07:18:53;;;;;;;7.17;1.63;;;;;;;;;;4992412;28;20041;-75
2024/01/03 07:21:28;;;;;;;13.27;2.10;;;;;;;;;;4977380;28;20095;-76
2024/01/03 07:24:02;;;;;;;11.23;1.83;;;;;;;;;;4973965;28;20039;-76
2024/01/03 07:26:28;;;;;;;9.17;1.90;;;;;;;;;;4977504;28;20030;-77
2024/01/03 07:28:56;;;;;;;10.63;2.33;;;;;;;;;;4978279;28;20015;-76
2024/01/03 07:31:34;;;;;;;11.17;1.77;;;;;;;;;;4992802;28;20038;-76
2024/01/03 07:34:17;;;;;;;11.60;2.87;;;;;;;;;;4991425;28;20027;-76
2024/01/03 07:36:49;;;;;;;10.03;2.53;;;;;;;;;;4973487;28;20039;-77
2024/01/03 07:40:05;;;;;;;3.75;1.02;;;;;;;;;;4978097;28;20050;-76
2024/01/03 07:42:41;;;;;;;;;;;;;;;;;;;;;
2024/01/03 07:45:12;;;;;;;10.97;1.50;;;;;;;;;;5033734;28;20052;-75
2024/01/03 07:47:38;;;;;;;11.60;1.27;;;;;;;;;;5005395;28;20023;-78
2024/01/03 07:50:17;;;;;;;;;;;;;;;;;;;;;
2024/01/03 07:52:43;;;;;;;6.37;1.10;;;;;;;;;;5032746;28;20180;-77
2024/01/03 07:55:21;;;;;;;7.07;0.90;;;;;;;;;;5016581;28;20102;-77
2024/01/03 07:58:12;;;;;;;5.30;0.90;;;;;;;;;;5017160;28;20021;-78
2024/01/03 08:01:03;;;;;;;8.57;1.63;;;;;;;;;;5033814;28;20037;-77
2024/01/03 08:03:56;;;;;;;;;;;;;;;;;;;;;
2024/01/03 08:06:38;;;;;;;;;;;;;;;;;;;;;
2024/01/03 08:09:24;;;;;;;6.30;1.53;;;;;;;;;;5033375;28;20042;-76
2024/01/03 08:11:53;;;;;;;10.03;1.43;;;;;;;;;;5016353;28;20022;-77
2024/01/03 08:14:22;;;;;;;9.70;1.30;;;;;;;;;;5097728;23;20037;-77
2024/01/03 08:19:40;;;;;;;9.13;1.83;;;;;;;;;;5028340;28;20061;-76
2024/01/03 08:22:24;;;;;;;8.23;1.33;;;;;;;;;;5006691;28;20048;-76
2024/01/03 08:25:23;;;;;;;;;;;;;;;;;;;;;
2024/01/03 08:28:00;;;;;;;11.00;1.50;;;;;;;;;;5027858;28;20042;-77
2024/01/03 08:30:34;;;;;;;10.40;1.80;;;;;;;;;;5007020;28;20044;-77
2024/01/03 08:33:06;;;;;;;7.90;1.63;;;;;;;;;;5015924;28;20037;-78
2024/01/03 08:35:44;;;;;;;8.30;1.40;;;;;;;;;;5016701;28;20057;-79
2024/01/03 08:38:23;;;;;;;;;;;;;;;;;;;;;
2024/01/03 08:40:54;;;;;;;9.80;1.40;;;;;;;;;;5032547;28;20045;-77
2024/01/03 08:46:35;;;;;;;;;;;;;;;;;;;;;
2024/01/03 08:49:10;;;;;;;8.17;1.43;;;;;;;;;;4991986;28;20045;-77
2024/01/03 08:51:45;;;;;;;3.97;1.00;;;;;;;;;;5007684;28;20022;-77
2024/01/03 08:54:15;;;;;;;9.13;1.73;;;;;;;;;;5016952;28;20013;-77
2024/01/03 08:56:44;;;;;;;6.33;1.03;;;;;;;;;;5006971;28;20036;-77
2024/01/03 08:59:10;;;;;;;5.83;0.73;;;;;;;;;;5017170;28;20038;-77
2024/01/03 09:01:49;;;;;;;9.67;0.93;;;;;;;;;;5016713;28;20081;-78
2024/01/03 09:04:15;;;;;;;6.10;0.90;;;;;;;;;;5015835;28;20086;-79
2024/01/03 09:06:41;;;;;;;4.27;0.90;;;;;;;;;;5016996;28;20025;-74
2024/01/03 09:09:20;;;;;;;6.67;0.70;;;;;;;;;;5016836;28;20014;-79
2024/01/03 09:11:56;;;;;;;;;;;;;;;;;;;;;
2024/01/03 09:14:42;;;;;;;;;;;;;;;;;;;;;
2024/01/03 09:20:12;;;;;;;4.43;0.57;;;;;;;;;;5021599;28;20030;-76
2024/01/03 09:22:41;;;;;;;4.73;0.77;;;;;;;;;;5007065;28;20041;-79
2024/01/03 09:25:16;;;;;;;5.03;1.00;;;;;;;;;;5013407;28;21236;-77
2024/01/03 09:27:45;;;;;;;4.77;1.10;;;;;;;;;;5009054;28;20026;-77
2024/01/03 09:30:22;;;;;;;7.37;1.63;;;;;;;;;;5008090;28;20037;-77
2024/01/03 09:32:51;;;;;;;8.63;1.23;;;;;;;;;;5013195;28;20037;-77
2024/01/03 09:35:20;;;;;;;8.73;1.20;;;;;;;;;;5026051;28;20057;-77
2024/01/03 09:37:48;;;;;;;4.97;1.33;;;;;;;;;;5017077;28;20038;-77
2024/01/03 09:40:35;;;;;;;6.67;1.20;;;;;;;;;;5013690;28;20050;-78
2024/01/03 09:43:13;;;;;;;6.47;1.00;;;;;;;;;;5010451;28;20022;-78
2024/01/03 09:45:48;;;;;;;7.23;1.10;;;;;;;;;;5014903;28;20034;-77
2024/01/03 09:48:37;;;;;;;9.57;1.30;;;;;;;;;;5027579;28;20022;-77
2024/01/03 09:51:07;;;;;;;10.30;1.37;;;;;;;;;;5026066;28;20019;-77
2024/01/03 09:53:39;;;;;;;12.07;2.03;;;;;;;;;;5028285;28;20038;-78
2024/01/03 09:56:08;;;;;;;;;;;;;;;;;;5028579;28;20048;-77
2024/01/03 09:58:39;;;;;;;13.83;2.30;;;;;;;;;;5014174;28;19909;-78
2024/01/03 10:04:01;;;;;;;15.63;2.57;;;;;;;;;;5029254;28;20027;-78
2024/01/03 10:06:55;;;;;;;18.07;1.63;;;;;;;;;;5012815;28;20022;-77
2024/01/03 10:09:30;;;;;;;18.97;2.57;;;;;;;;;;5015091;28;20015;-77
2024/01/03 10:11:58;;;;;;;19.97;3.20;;;;;;;;;;5024195;28;20014;-77
2024/01/03 10:14:27;;;;;;;18.67;2.40;;;;;;;;;;5014121;28;20023;-77
2024/01/03 10:20:20;;;;;;;13.53;2.17;;;;;;;;;;5019203;28;20192;-78
2024/01/03 10:22:48;;;;;;;13.50;2.47;;;;;;;;;;5027447;28;20321;-77
2024/01/03 10:25:42;;;;;;;17.70;2.53;;;;;;;;;;5012526;28;20026;-77
2024/01/03 10:28:12;;;;;;;22.97;2.17;;;;;;;;;;5028136;28;20039;-77
2024/01/03 10:30:41;;;;;;;10.17;1.87;;;;;;;;;;5013598;28;20051;-79
2024/01/03 10:33:20;;;;;;;11.80;1.93;;;;;;;;;;5011746;28;20048;-78
2024/01/03 10:35:49;;;;;;;12.97;1.83;;;;;;;;;;5010152;28;20046;-77
2024/01/03 10:39:00;;;;;;;11.57;1.67;;;;;;;;;;5013183;28;20022;-77
2024/01/03 10:41:37;;;;;;;;;;;;;;;;;;;;;
2024/01/03 10:44:35;;;;;;;10.70;1.63;;;;;;;;;;5028742;28;20086;-78
2024/01/03 10:47:11;;;;;;;9.57;1.53;;;;;;;;;;5022108;28;20015;-77
2024/01/03 10:49:53;;;;;;;11.87;2.57;;;;;;;;;;5030312;28;20014;-78
2024/01/03 10:52:53;;;;;;;17.98;2.63;;;;;;;;;;5015418;28;20025;-77
2024/01/03 10:58:29;;;;;;;;;;;;;;;;;;;;;
2024/01/03 11:00:58;;;;;;;8.57;2.13;;;;;;;;;;5030079;28;20018;-77
2024/01/03 11:03:45;;;;;;;14.73;1.73;;;;;;;;;;5021885;28;20029;-78
2024/01/03 11:06:22;;;;;;;10.80;2.23;;;;;;;;;;5013448;28;20022;-78
2024/01/03 11:11:49;;;;;;;14.60;2.70;;;;;;;;;;5010050;28;20030;-78
2024/01/03 11:20:56;;;;;;;8.57;1.97;;;;;;;;;;4994249;28;20014;-78
2024/01/03 11:27:08;;;;;;;;;;;;;;;;;;;;;
2024/01/03 11:29:57;;;;;;;14.53;1.97;;;;;;;;;;5015937;28;20018;-77
2024/01/03 11:33:09;;;;;;;11.87;1.67;;;;;;;;;;4996651;28;20038;-77
2024/01/03 11:36:16;;;;;;;11.50;1.93;;;;;;;;;;4912654;29;20028;-78
2024/01/03 11:39:06;;;;;;;7.43;1.50;;;;;;;;;;4888594;29;20032;-78
2024/01/03 11:41:34;;;;;;;9.03;3.00;;;;;;;;;;4872333;29;20037;-77
2024/01/03 11:44:29;;;;;;;11.73;1.83;;;;;;;;;;4900834;29;20017;-77
2024/01/03 11:47:16;;;;;;;7.67;1.77;;;;;;;;;;4903202;29;20027;-78
2024/01/03 11:56:19;;;;;;;9.77;1.93;;;;;;;;;;4905041;29;20060;-78
2024/01/03 11:59:00;;;;;;;15.17;2.00;;;;;;;;;;4905742;29;20040;-78
2024/01/03 12:04:40;;;;;;;11.67;2.10;;;;;;;;;;4886587;29;20013;-78
2024/01/03 12:10:05;;;;;;;12.77;2.30;;;;;;;;;;4875421;29;20009;-78
2024/01/03 12:20:53;;;;;;;;;;;;;;;;;;;;;
2024/01/03 12:23:47;;;;;;;;;;;;;;;;;;;;;
2024/01/03 12:26:31;;;;;;;12.67;2.57;;;;;;;;;;5018217;28;20053;-77
2024/01/03 12:29:46;;;;;;;16.17;2.83;;;;;;;;;;5008924;28;20094;-78
2024/01/03 12:32:29;;;;;;;;;;;;;;;;;;;;;
2024/01/03 12:35:12;;;;;;;7.43;2.07;;;;;;;;;;5013956;28;20026;-76
2024/01/03 12:38:17;;;;;;;;;;;;;;;;;;;;;
2024/01/03 12:40:54;;;;;;;8.67;2.23;;;;;;;;;;5018308;28;20054;-76
2024/01/03 12:44:03;;;;;;;;;;;;;;;;;;;;;
2024/01/03 12:46:53;;;;;;;13.70;2.20;;;;;;;;;;5034720;28;20061;-75
2024/01/03 12:52:35;;;;;;;;;;;;;;;;;;;;;
2024/01/03 12:55:09;;;;;;;11.47;2.27;;;;;;;;;;5035133;28;20085;-75
2024/01/03 12:57:52;;;;;;;;;;;;;;;;;;;;;
2024/01/03 13:00:45;;;;;;;9.10;2.03;;;;;;;;;;5034268;28;20054;-76
2024/01/03 13:09:37;;;;;;;12.20;2.10;;;;;;;;;;5000725;28;20140;-77
2024/01/03 13:12:15;;;;;;;7.70;1.97;;;;;;;;;;5021685;28;20015;-77
2024/01/03 13:17:46;;;;;;;16.27;2.47;;;;;;;;;;5036041;28;20013;-78
2024/01/03 13:23:17;;;;;;;15.07;2.20;;;;;;;;;;5024041;28;20046;-78
2024/01/03 13:26:17;;;;;;;;;;;;;;;;;;;;;
2024/01/03 13:29:06;;;;;;;6.33;1.40;;;;;;;;;;5037772;28;20074;-77
2024/01/03 13:31:38;;;;;;;10.60;2.43;;;;;;;;;;5019354;28;20034;-77
2024/01/03 13:34:33;;;;;;;10.10;1.95;;;;;;;;;;5019706;28;20022;-78
2024/01/03 13:37:01;;;;;;;10.47;2.40;;;;;;;;;;5019111;28;20030;-78
2024/01/03 13:39:36;;;;;;;14.10;2.17;;;;;;;;;;5019827;28;20026;-77
2024/01/03 13:48:21;;;;;;;;;;;;;;;;;;;;;
2024/01/03 13:54:10;;;;;;;13.23;1.83;;;;;;;;;;5037086;28;20313;-78
2024/01/03 13:59:37;;;;;;;;;;;;;;;;;;;;;
2024/01/03 14:02:26;;;;;;;9.63;1.33;;;;;;;;;;5036693;28;20018;-78
2024/01/03 14:05:16;;;;;;;8.43;1.63;;;;;;;;;;5019116;28;20030;-77
2024/01/03 14:08:08;;;;;;;5.67;1.67;;;;;;;;;;5035061;28;20046;-78
2024/01/03 14:11:24;;;;;;;4.57;1.08;;;;;;;;;;5018990;28;20006;-77
2024/01/03 14:17:10;;;;;;;6.77;1.30;;;;;;;;;;5018769;28;20022;-78
2024/01/03 14:22:37;;;;;;;4.60;0.97;;;;;;;;;;5019252;28;20111;-77
2024/01/03 14:25:39;;;;;;;;;;;;;;;;;;;;;
2024/01/03 14:29:20;;;;;;;;;;;;;;;;;;;;;
2024/01/03 14:31:25;;;;;;;3.67;1.03;;;;;;;;;;5022600;28;20030;-77
2024/01/03 14:34:03;;;;;;;5.73;1.03;;;;;;;;;;5018788;28;20050;-78
2024/01/03 14:37:05;;;;;;;6.57;1.30;;;;;;;;;;5008941;28;20022;-78
2024/01/03 14:39:50;;;;;;;9.47;1.37;;;;;;;;;;4999702;28;20113;-77
2024/01/03 14:42:48;;;;;;;6.83;1.13;;;;;;;;;;5019448;28;20022;-78
2024/01/03 14:45:20;;;;;;;9.87;1.60;;;;;;;;;;5124776;23;20045;-78
2024/01/03 14:50:51;;;;;;;;;;;;;;;;;;;;;
2024/01/03 14:53:30;;;;;;;;;;;;;;;;;;;;;
2024/01/03 14:56:10;;;;;;;6.90;1.83;;;;;;;;;;5014499;28;20065;-79
2024/01/03 14:58:44;;;;;;;8.47;1.67;;;;;;;;;;5014437;28;20037;-78
2024/01/03 15:01:23;;;;;;;8.57;1.37;;;;;;;;;;5009624;28;20037;-79
2024/01/03 15:03:53;;;;;;;8.03;1.20;;;;;;;;;;5005168;28;20027;-78
2024/01/03 15:06:30;;;;;;;7.27;1.83;;;;;;;;;;5014456;28;20070;-79
2024/01/03 15:09:29;;;;;;;;;;;;;;;;;;;;;
2024/01/03 15:12:21;;;;;;;10.47;1.40;;;;;;;;;;5009162;28;20046;-77
2024/01/03 15:21:27;;;;;;;12.27;1.67;;;;;;;;;;4954836;29;20042;-78
2024/01/03 15:24:14;;;;;;;10.97;2.23;;;;;;;;;;4952868;29;20039;-78
2024/01/03 15:26:58;;;;;;;11.23;2.43;;;;;;;;;;4950285;29;20099;-78
2024/01/03 15:29:46;;;;;;;12.80;1.77;;;;;;;;;;4954205;29;20028;-77
2024/01/03 15:32:30;;;;;;;11.93;1.73;;;;;;;;;;4954071;28;20027;-78
2024/01/03 15:35:35;;;;;;;;;;;;;;;;;;;;;
2024/01/03 15:38:36;;;;;;;8.90;2.50;;;;;;;;;;4944204;29;20066;-77
2024/01/03 15:44:09;;;;;;;9.57;1.60;;;;;;;;;;4954257;29;20024;-78
2024/01/03 15:46:52;;;;;;;11.10;1.70;;;;;;;;;;4938956;28;20036;-79
2024/01/03 15:49:50;;;;;;;11.67;1.43;;;;;;;;;;4949166;29;20019;-77
2024/01/03 15:52:22;;;;;;;6.97;1.50;;;;;;;;;;4991390;28;20061;-78
2024/01/03 15:54:53;;;;;;;11.60;1.77;;;;;;;;;;5007987;28;20049;-78
2024/01/03 15:57:28;;;;;;;10.27;2.20;;;;;;;;;;5011727;28;20026;-77
2024/01/03 16:03:15;;;;;;;5.00;1.85;;;;;;;;;;4962564;28;20024;-78
2024/01/03 16:06:07;;;;;;;8.23;1.33;;;;;;;;;;5009935;28;20022;-78
2024/01/03 16:09:09;;;;;;;;;;;;;;;;;;;;;
2024/01/03 16:11:45;;;;;;;13.15;2.45;;;;;;;;;;5010003;28;20042;-78
2024/01/03 16:14:26;;;;;;;9.33;1.60;;;;;;;;;;4997656;28;20018;-77
2024/01/03 16:17:23;;;;;;;6.77;1.73;;;;;;;;;;5009168;28;20030;-77
2024/01/03 16:20:16;;;;;;;7.20;1.73;;;;;;;;;;5012333;28;20109;-78
2024/01/03 16:22:56;;;;;;;8.48;1.75;;;;;;;;;;5010789;28;20374;-78
2024/01/03 16:25:37;;;;;;;7.80;1.50;;;;;;;;;;5013145;28;20015;-78
2024/01/03 16:28:29;;;;;;;11.30;1.87;;;;;;;;;;5011196;28;20162;-78
2024/01/03 16:34:30;;;;;;;9.17;1.70;;;;;;;;;;5008049;28;20042;-77
2024/01/03 16:46:55;;;;;;;;;;;;;;;;;;;;;
2024/01/03 16:52:53;;;;;;;9.97;1.80;;;;;;;;;;5016923;28;20039;-77
2024/01/03 16:55:22;;;;;;;11.73;1.67;;;;;;;;;;5001700;28;20026;-77
2024/01/03 16:58:09;;;;;;;12.80;2.17;;;;;;;;;;5010319;28;20070;-78
2024/01/03 17:00:51;;;;;;;8.67;1.53;;;;;;;;;;5015668;28;20083;-78
2024/01/03 17:03:23;;;;;;;10.52;1.83;;;;;;;;;;5001677;28;20204;-78
2024/01/03 17:06:05;;;;;;;7.80;1.60;;;;;;;;;;5018295;28;20065;-77
2024/01/03 17:08:40;;;;;;;12.00;1.80;;;;;;;;;;5017544;28;19999;-77
2024/01/03 17:11:16;;;;;;;7.47;1.53;;;;;;;;;;5011002;28;20023;-77
2024/01/03 17:13:52;;;;;;;7.10;1.63;;;;;;;;;;4999141;28;20023;-78
2024/01/03 17:16:50;;;;;;;11.33;2.77;;;;;;;;;;5001569;28;20011;-78
2024/01/03 17:19:27;;;;;;;8.10;1.70;;;;;;;;;;5010331;28;20201;-79
2024/01/03 17:22:03;;;;;;;11.00;1.67;;;;;;;;;;5001388;28;20011;-78
2024/01/03 17:24:59;;;;;;;;;;;;;;;;;;;;;
2024/01/03 17:27:33;;;;;;;10.10;1.37;;;;;;;;;;5018384;28;20014;-77
2024/01/03 17:30:26;;;;;;;13.77;2.37;;;;;;;;;;5000184;28;20026;-78
2024/01/03 17:36:20;;;;;;;6.37;1.13;;;;;;;;;;4953497;28;20039;-78
2024/01/03 17:38:56;;;;;;;8.90;1.90;;;;;;;;;;4945533;28;20060;-77
2024/01/03 17:41:45;;;;;;;8.77;1.30;;;;;;;;;;4942975;28;20040;-77
2024/01/03 17:44:21;;;;;;;7.27;1.17;;;;;;;;;;4958487;29;20083;-77
2024/01/03 17:46:58;;;;;;;9.73;2.40;;;;;;;;;;4937011;29;20086;-78
2024/01/03 17:49:41;;;;;;;10.97;2.00;;;;;;;;;;4941412;29;20056;-78
2024/01/03 17:52:14;;;;;;;11.30;1.80;;;;;;;;;;4961226;28;20016;-78
2024/01/03 17:55:08;;;;;;;7.97;1.93;;;;;;;;;;4942238;29;20015;-79
2024/01/03 17:57:49;;;;;;;;;;;;;;;;;;;;;
2024/01/03 18:00:32;;;;;;;10.93;1.90;;;;;;;;;;4964742;28;20028;-77
2024/01/03 18:03:28;;;;;;;9.23;1.70;;;;;;;;;;4945949;29;20019;-77
2024/01/03 18:06:10;;;;;;;;;;;;;;;;;;;;;
2024/01/03 18:09:03;;;;;;;;;;;;;;;;;;;;;
2024/01/03 18:11:38;;;;;;;9.53;1.40;;;;;;;;;;5021500;28;20046;-78
2024/01/03 18:14:35;;;;;;;5.47;1.40;;;;;;;;;;5090878;23;20099;-77
2024/01/03 18:20:57;;;;;;;6.33;1.00;;;;;;;;;;5016147;28;20010;-78
2024/01/03 18:26:55;;;;;;;5.90;1.30;;;;;;;;;;5008739;28;20034;-78
2024/01/03 18:29:41;;;;;;;;;;;;;;;;;;;;;
2024/01/03 18:35:30;;;;;;;8.87;1.37;;;;;;;;;;5013997;28;20041;-78
2024/01/03 18:40:58;;;;;;;13.27;1.30;;;;;;;;;;5010411;28;20033;-78
2024/01/03 18:44:12;;;;;;;;;;;;;;;;;;;;;
2024/01/03 18:46:29;;;;;;;8.10;1.67;;;;;;;;;;5005703;28;20026;-78
2024/01/03 18:49:05;;;;;;;5.63;1.03;;;;;;;;;;4998274;28;20042;-78
2024/01/03 18:51:41;;;;;;;6.47;1.27;;;;;;;;;;4998152;28;20026;-78
2024/01/03 18:54:29;;;;;;;;;;;;;;;;;;;;;
2024/01/03 18:57:16;;;;;;;6.03;1.00;;;;;;;;;;5015698;28;20046;-78
2024/01/03 19:00:00;;;;;;;;;;;;;;;;;;;;;
2024/01/03 19:05:28;;;;;;;4.18;1.02;;;;;;;;;;4957899;28;20027;-79
2024/01/03 19:08:16;;;;;;;;;;;;;;;;;;;;;
2024/01/03 19:14:25;;;;;;;10.30;2.00;;;;;;;;;;5017578;28;20169;-78
2024/01/03 19:19:59;;;;;;;6.80;1.47;;;;;;;;;;5001687;28;20292;-78
2024/01/03 19:22:46;;;;;;;;;;;;;;;;;;;;;
2024/01/03 19:25:41;;;;;;;7.20;1.07;;;;;;;;;;5018952;28;20057;-78
2024/01/03 19:28:27;;;;;;;5.77;1.23;;;;;;;;;;5003171;28;20030;-78
2024/01/03 19:31:18;;;;;;;;;;;;;;;;;;;;;
2024/01/03 19:33:59;;;;;;;5.07;1.10;;;;;;;;;;5019835;28;20054;-79